Terminal Aerodrome Forecast
Issued by NWS

Home | Current Version | Previous Version | Text Only | Print | Product List | Glossary On
Versions: 1 2 3 4 5 6 7 8 9 10 11 12
000
FTUS46 KMTR 251700
TAFSJC
TAF
KSJC 251732Z 2518/2618 VRB03KT P6SM FEW200
     FM252000 23006KT P6SM SKC
     FM260400 VRB03KT P6SM FEW250
     FM261500 VRB03KT P6SM BKN250=

USA.gov is the U.S. government's official web portal to all federal, state and local government web resources and services.